Time;durP1;ratioP1;P1;durP2;ratioP2;P2;SDS_P1;SDS_P2;PMS_P1;PMS_P2;Temp;Humidity;BMP_temperature;BMP_pressure;BME280_temperature;BME280_humidity;BME280_pressure;Samples;Min_cycle;Max_cycle;Signal;HPM_P1;HPM_P2
2022/06/30 00:02:06;;;;;;;7.57;6.88;;;26.20;58.30;27.90;100339.00;;;;5090973;28;20204;-42
2022/06/30 00:04:33;;;;;;;6.60;6.20;;;26.20;58.50;27.90;100351.00;;;;5090735;28;20165;-43
2022/06/30 00:06:59;;;;;;;7.25;6.65;;;26.20;58.50;27.80;100345.00;;;;5090704;28;20764;-42
2022/06/30 00:09:24;;;;;;;7.50;6.90;;;26.20;58.60;27.80;100339.00;;;;5090386;28;20176;-42
2022/06/30 00:11:50;;;;;;;7.30;6.65;;;26.20;58.70;27.80;100294.00;;;;5090170;28;20502;-42
2022/06/30 00:14:16;;;;;;;7.68;7.07;;;26.20;58.90;27.80;100348.00;;;;5090075;28;20638;-43
2022/06/30 00:16:42;;;;;;;7.22;6.72;;;26.10;58.90;27.70;100344.00;;;;5090580;28;20169;-41
2022/06/30 00:19:07;;;;;;;7.30;6.75;;;26.20;59.00;27.70;100341.00;;;;5090043;28;20219;-42
2022/06/30 00:21:33;;;;;;;7.78;7.05;;;26.10;58.90;27.70;100342.00;;;;5089338;28;20295;-42
2022/06/30 00:23:59;;;;;;;7.53;6.93;;;26.10;58.90;27.70;100335.00;;;;5090388;28;20618;-42
2022/06/30 00:26:25;;;;;;;7.72;7.10;;;26.10;59.00;27.60;100334.00;;;;5089828;28;20391;-42
2022/06/30 00:28:51;;;;;;;8.18;7.38;;;26.10;59.00;27.60;100320.00;;;;5089636;28;20165;-52
2022/06/30 00:31:17;;;;;;;7.28;6.68;;;26.10;58.90;27.60;100337.00;;;;5103802;28;20174;-42
2022/06/30 00:33:42;;;;;;;6.78;6.38;;;26.10;58.80;27.60;100332.00;;;;5104146;28;20175;-42
2022/06/30 00:36:08;;;;;;;7.15;6.47;;;26.10;58.80;27.60;100325.00;;;;5099471;28;20220;-42
2022/06/30 00:38:34;;;;;;;6.75;6.20;;;26.10;58.70;27.60;100325.00;;;;5089444;28;20205;-43
2022/06/30 00:41:00;;;;;;;6.88;6.28;;;26.10;58.70;27.60;100332.00;;;;5089138;28;20257;-43
2022/06/30 00:43:25;;;;;;;6.68;6.18;;;26.10;58.70;27.60;100320.00;;;;5089293;28;20169;-42
2022/06/30 00:45:51;;;;;;;6.63;6.10;;;26.10;58.70;27.60;100320.00;;;;5094848;28;20188;-42
2022/06/30 00:48:17;;;;;;;6.95;6.45;;;26.10;58.70;27.60;100323.00;;;;5094109;28;20199;-43
2022/06/30 00:50:43;;;;;;;7.20;6.60;;;26.10;58.70;27.60;100315.00;;;;5089132;28;20172;-43
2022/06/30 00:53:09;;;;;;;6.80;6.30;;;26.00;58.80;27.50;100312.00;;;;5088943;28;20166;-43
2022/06/30 00:55:35;;;;;;;6.47;5.97;;;26.00;58.80;27.50;100320.00;;;;5088592;28;20184;-43
2022/06/30 00:58:03;;;;;;;7.03;6.53;;;26.00;58.80;27.50;100311.00;;;;5089233;28;20172;-42
2022/06/30 01:00:32;;;;;;;7.45;6.85;;;26.00;58.80;27.50;100316.00;;;;5089286;28;20169;-42
2022/06/30 01:02:58;;;;;;;6.70;6.20;;;26.00;58.90;27.50;100306.00;;;;5110117;28;20169;-46
2022/06/30 01:05:24;;;;;;;6.97;6.47;;;26.00;58.80;27.50;100310.00;;;;5110983;28;20220;-42
2022/06/30 01:07:50;;;;;;;6.85;6.32;;;26.00;58.80;27.40;100304.00;;;;5094874;28;20161;-42
2022/06/30 01:13:00;;;;;;;8.27;6.90;;;26.00;58.80;27.40;100300.00;;;;5088771;28;20183;-42
2022/06/30 01:15:26;;;;;;;6.80;6.30;;;25.90;58.90;27.40;100300.00;;;;5087330;28;20185;-42
2022/06/30 01:17:52;;;;;;;6.80;6.30;;;25.90;58.80;27.30;100302.00;;;;5088497;28;20181;-41
2022/06/30 01:20:28;;;;;;;7.13;6.53;;;25.90;58.80;27.30;100300.00;;;;5088811;28;20173;-41
2022/06/30 01:22:58;;;;;;;6.90;6.40;;;25.90;58.70;27.30;100298.00;;;;5088322;28;20209;-42
2022/06/30 01:25:26;;;;;;;7.40;6.90;;;25.90;58.90;27.20;100305.00;;;;5088737;28;20200;-42
2022/06/30 01:27:53;;;;;;;7.70;7.00;;;25.80;59.10;27.20;100302.00;;;;5088284;28;20255;-42
2022/06/30 01:30:19;;;;;;;7.47;6.80;;;25.80;59.10;27.20;100305.00;;;;5088475;28;20161;-42
2022/06/30 01:32:45;;;;;;;7.13;6.63;;;25.80;59.10;27.20;100300.00;;;;5088377;28;20669;-42
2022/06/30 01:35:11;;;;;;;7.15;6.65;;;25.80;59.10;27.20;100305.00;;;;5088208;28;20719;-42
2022/06/30 01:37:49;;;;;;;7.55;6.95;;;25.80;59.20;27.10;100301.00;;;;5087854;28;20318;-41
2022/06/30 01:40:15;;;;;;;8.15;7.40;;;25.80;59.10;27.10;100297.00;;;;5088207;28;20233;-42
2022/06/30 01:42:41;;;;;;;7.53;7.00;;;25.80;59.20;27.10;100297.00;;;;5088005;28;20185;-42
2022/06/30 01:45:07;;;;;;;7.38;6.85;;;25.80;59.10;27.10;100297.00;;;;5088076;28;20864;-42
2022/06/30 01:47:33;;;;;;;7.00;6.50;;;25.70;59.10;27.10;100295.00;;;;5087607;28;20190;-42
2022/06/30 01:49:59;;;;;;;8.32;7.60;;;25.70;59.10;27.00;100288.00;;;;5087045;28;20247;-42
2022/06/30 01:52:24;;;;;;;7.20;6.60;;;25.70;59.30;27.00;100285.00;;;;5088414;28;20180;-41
2022/06/30 01:54:50;;;;;;;7.55;6.95;;;25.70;59.60;27.00;100287.00;;;;5087505;28;20184;-41
2022/06/30 01:57:16;;;;;;;7.60;7.00;;;25.60;59.50;27.00;100294.00;;;;5087578;28;20208;-42
2022/06/30 01:59:41;;;;;;;7.72;7.20;;;25.60;59.70;27.00;100288.00;;;;5087627;28;20165;-41
2022/06/30 02:02:07;;;;;;;7.30;6.70;;;25.70;59.50;27.00;100289.00;;;;5087630;28;20204;-42
2022/06/30 02:04:48;;;;;;;8.07;7.40;;;25.70;59.40;26.90;100288.00;;;;5086025;28;20230;-43
2022/06/30 02:07:14;;;;;;;8.55;7.78;;;25.70;59.40;26.90;100289.00;;;;5087335;28;20172;-42
2022/06/30 02:09:40;;;;;;;7.63;7.03;;;25.60;59.30;26.90;100292.00;;;;5087785;28;20646;-43
2022/06/30 02:14:52;;;;;;;8.07;7.38;;;25.70;59.10;26.90;100288.00;;;;5087203;28;20258;-42
2022/06/30 02:17:17;;;;;;;8.52;7.72;;;25.60;59.00;26.80;100296.00;;;;5087161;28;20794;-41
2022/06/30 02:19:43;;;;;;;8.02;7.10;;;25.50;59.10;26.80;100305.00;;;;5087345;28;20165;-42
2022/06/30 02:22:09;;;;;;;7.18;6.60;;;25.60;59.10;26.80;100308.00;;;;5087167;28;20530;-41
2022/06/30 02:24:35;;;;;;;6.97;6.38;;;25.60;59.00;26.80;100302.00;;;;5086820;28;20215;-42
2022/06/30 02:27:00;;;;;;;7.72;7.13;;;25.60;58.90;26.80;100313.00;;;;5087012;28;20185;-42
2022/06/30 02:29:26;;;;;;;7.88;7.20;;;25.60;58.90;26.80;100336.00;;;;5086948;28;20165;-42
2022/06/30 02:31:52;;;;;;;7.40;6.82;;;25.70;59.00;26.80;100325.00;;;;5087137;28;20200;-42
2022/06/30 02:34:17;;;;;;;7.35;6.63;;;25.60;58.80;26.80;100326.00;;;;5087062;28;20255;-43
2022/06/30 02:36:43;;;;;;;6.97;6.35;;;25.60;59.00;26.80;100325.00;;;;5087248;28;20180;-42
2022/06/30 02:39:09;;;;;;;6.97;6.35;;;25.50;58.90;26.70;100318.00;;;;5101300;28;20172;-41
2022/06/30 02:41:35;;;;;;;6.57;6.07;;;25.50;58.90;26.70;100331.00;;;;5101145;28;20188;-42
2022/06/30 02:44:02;;;;;;;7.13;6.55;;;25.50;58.90;26.70;100333.00;;;;5097053;28;20173;-42
2022/06/30 02:46:28;;;;;;;7.15;6.65;;;25.50;58.90;26.70;100334.00;;;;5087083;28;20203;-43
2022/06/30 02:48:54;;;;;;;7.90;7.20;;;25.60;59.00;26.70;100332.00;;;;5087496;28;20946;-42
2022/06/30 02:51:19;;;;;;;7.25;6.75;;;25.50;59.00;26.70;100334.00;;;;5088861;28;20177;-42
2022/06/30 02:53:45;;;;;;;7.50;6.90;;;25.50;58.90;26.60;100332.00;;;;5087955;28;20180;-42
2022/06/30 02:56:12;;;;;;;7.30;6.70;;;25.50;58.90;26.60;100325.00;;;;5088470;28;20192;-41
2022/06/30 02:58:38;;;;;;;7.10;6.45;;;25.50;58.90;26.60;100331.00;;;;5086825;28;20515;-46
2022/06/30 03:01:04;;;;;;;6.72;6.30;;;25.40;59.00;26.60;100335.00;;;;5086724;28;20185;-43
2022/06/30 03:03:30;;;;;;;7.18;6.57;;;25.50;59.00;26.60;100324.00;;;;5086457;28;20204;-42
2022/06/30 03:05:55;;;;;;;7.32;6.68;;;25.40;59.00;26.50;100339.00;;;;5086252;28;20200;-42
2022/06/30 03:08:21;;;;;;;7.75;7.15;;;25.50;59.00;26.50;100333.00;;;;5085092;28;20165;-42
2022/06/30 03:10:47;;;;;;;7.28;6.65;;;25.50;59.10;26.50;100336.00;;;;5086528;28;20180;-43
2022/06/30 03:13:13;;;;;;;7.13;6.63;;;25.50;58.90;26.50;100337.00;;;;5086596;28;20188;-42
2022/06/30 03:15:38;;;;;;;7.20;6.60;;;25.50;59.00;26.50;100318.00;;;;5086100;28;20203;-41
2022/06/30 03:18:04;;;;;;;7.20;6.70;;;25.40;59.00;26.50;100332.00;;;;5086182;28;20161;-42
2022/06/30 03:20:30;;;;;;;7.10;6.50;;;25.40;59.40;26.50;100338.00;;;;5086373;28;20238;-42
2022/06/30 03:22:56;;;;;;;7.68;7.00;;;25.40;59.10;26.50;100331.00;;;;5086330;28;20338;-42
2022/06/30 03:25:22;;;;;;;7.53;6.82;;;25.30;59.10;26.40;100336.00;;;;5085617;28;20721;-43
2022/06/30 03:27:47;;;;;;;8.88;7.00;;;25.40;59.20;26.40;100325.00;;;;5085880;28;20169;-41
2022/06/30 03:30:13;;;;;;;8.35;7.50;;;25.40;59.30;26.40;100338.00;;;;5086114;28;20200;-43
2022/06/30 03:32:39;;;;;;;7.50;6.90;;;25.40;59.40;26.40;100335.00;;;;5082054;28;20208;-43
2022/06/30 03:35:05;;;;;;;7.88;6.95;;;25.40;59.30;26.40;100326.00;;;;5074061;28;20239;-43
2022/06/30 03:37:31;;;;;;;7.15;6.45;;;25.40;59.40;26.40;100337.00;;;;5065634;28;20180;-42
2022/06/30 03:39:57;;;;;;;7.60;6.90;;;25.30;59.50;26.40;100331.00;;;;5065393;28;20185;-41
2022/06/30 03:42:23;;;;;;;8.18;7.47;;;25.30;59.50;26.40;100331.00;;;;5065827;28;20267;-42
2022/06/30 03:44:50;;;;;;;7.40;6.90;;;25.30;59.50;26.40;100326.00;;;;5065916;28;20776;-43
2022/06/30 03:47:15;;;;;;;8.05;7.40;;;25.30;59.40;26.30;100310.00;;;;5065228;28;20170;-42
2022/06/30 03:49:41;;;;;;;7.63;6.93;;;25.30;59.30;26.30;100317.00;;;;5066310;28;20637;-42
2022/06/30 03:52:07;;;;;;;8.85;8.15;;;25.30;59.30;26.30;100319.00;;;;5065391;28;20177;-41
2022/06/30 03:54:33;;;;;;;8.48;7.80;;;25.20;59.40;26.30;100316.00;;;;5065405;28;20173;-42
2022/06/30 03:56:59;;;;;;;8.32;7.72;;;25.30;59.20;26.20;100309.00;;;;5063931;28;20165;-42
2022/06/30 03:59:24;;;;;;;9.27;8.57;;;25.20;59.10;26.20;100300.00;;;;5065079;28;20203;-42
2022/06/30 04:01:50;;;;;;;8.60;8.00;;;25.20;59.10;26.20;100298.00;;;;5065159;28;20193;-42
2022/06/30 04:04:16;;;;;;;7.93;7.20;;;25.20;59.10;26.20;100297.00;;;;5064457;28;20762;-42
2022/06/30 04:06:42;;;;;;;7.35;6.82;;;25.20;59.20;26.20;100304.00;;;;5064808;28;20709;-42
2022/06/30 04:09:08;;;;;;;7.63;6.93;;;25.20;59.10;26.20;100302.00;;;;5065339;28;20158;-41
2022/06/30 04:11:34;;;;;;;8.02;7.43;;;25.20;59.00;26.20;100299.00;;;;5065973;28;20545;-42
2022/06/30 04:13:59;;;;;;;7.47;6.90;;;25.20;59.00;26.10;100291.00;;;;5075338;28;20177;-41
2022/06/30 04:16:25;;;;;;;8.05;7.38;;;25.10;58.90;26.10;100285.00;;;;5075271;28;20559;-42
2022/06/30 04:18:51;;;;;;;7.63;7.03;;;25.10;59.00;26.10;100288.00;;;;5064898;28;20650;-42
2022/06/30 04:21:17;;;;;;;8.15;7.30;;;25.10;59.20;26.10;100289.00;;;;5065095;28;20198;-42
2022/06/30 04:23:43;;;;;;;8.50;7.80;;;25.00;59.40;26.10;100291.00;;;;5065133;28;20613;-42
2022/06/30 04:26:09;;;;;;;8.15;7.45;;;24.90;59.30;26.00;100288.00;;;;5073499;28;20193;-42
2022/06/30 04:28:35;;;;;;;7.20;6.63;;;24.80;59.40;26.00;100306.00;;;;5087903;28;20166;-42
2022/06/30 04:33:45;;;;;;;6.80;6.30;;;24.90;59.20;25.90;100312.00;;;;5065570;28;20315;-41
2022/06/30 04:36:11;;;;;;;7.03;6.50;;;25.00;59.20;25.90;100309.00;;;;5065225;28;20276;-42
2022/06/30 04:38:37;;;;;;;7.07;6.57;;;24.90;59.20;25.90;100305.00;;;;5066050;28;20238;-42
2022/06/30 04:43:47;;;;;;;6.97;6.47;;;24.90;59.40;25.90;100298.00;;;;5068913;28;20230;-42
2022/06/30 04:46:13;;;;;;;7.47;6.88;;;24.90;59.40;25.90;100288.00;;;;5068498;28;20201;-43
2022/06/30 04:48:39;;;;;;;6.80;6.25;;;24.90;59.40;25.90;100286.00;;;;5068137;28;20176;-43
2022/06/30 04:51:04;;;;;;;7.60;6.88;;;24.90;59.30;25.80;100286.00;;;;5068758;28;20173;-42
2022/06/30 04:53:30;;;;;;;7.57;7.07;;;24.90;59.30;25.80;100288.00;;;;5068520;28;20177;-45
2022/06/30 04:55:56;;;;;;;7.88;7.10;;;24.90;59.40;25.80;100294.00;;;;5068697;28;20662;-41
2022/06/30 04:58:22;;;;;;;7.80;7.20;;;24.90;59.50;25.80;100291.00;;;;5068298;28;20182;-42
2022/06/30 05:00:48;;;;;;;7.22;6.72;;;25.00;59.40;25.80;100278.00;;;;5067351;28;20685;-42
2022/06/30 05:03:13;;;;;;;8.20;6.80;;;24.90;59.50;25.80;100277.00;;;;5068244;28;20637;-41
2022/06/30 05:05:39;;;;;;;7.80;7.10;;;24.90;59.50;25.80;100287.00;;;;5068524;28;20262;-41
2022/06/30 05:08:05;;;;;;;7.53;6.93;;;24.90;60.50;25.80;100274.00;;;;5069789;28;20169;-41
2022/06/30 05:10:31;;;;;;;7.30;6.70;;;24.90;59.70;25.80;100285.00;;;;5070361;28;20166;-42
2022/06/30 05:12:57;;;;;;;7.28;6.68;;;24.90;59.60;25.80;100264.00;;;;5067790;28;20180;-42
2022/06/30 05:15:22;;;;;;;7.38;6.85;;;24.90;59.50;25.80;100280.00;;;;5066772;28;20245;-41
2022/06/30 05:17:48;;;;;;;7.63;7.03;;;24.90;59.20;25.80;100274.00;;;;5067597;28;20220;-41
2022/06/30 05:20:14;;;;;;;7.00;6.40;;;24.90;59.20;25.70;100266.00;;;;5068026;28;20205;-43
2022/06/30 05:22:39;;;;;;;6.95;6.45;;;24.90;59.10;25.70;100274.00;;;;5067907;28;20197;-43
2022/06/30 05:27:50;;;;;;;7.05;6.55;;;24.90;59.20;25.70;100273.00;;;;5067329;28;20189;-42
2022/06/30 05:30:16;;;;;;;7.10;6.50;;;24.90;59.30;25.70;100268.00;;;;5067643;28;20393;-42
2022/06/30 05:32:43;;;;;;;7.53;6.90;;;24.90;59.20;25.70;100273.00;;;;5066654;28;20299;-43
2022/06/30 05:35:09;;;;;;;8.00;7.40;;;24.90;59.40;25.70;100269.00;;;;5067371;28;20194;-41
2022/06/30 05:37:35;;;;;;;7.57;7.00;;;24.90;59.40;25.60;100267.00;;;;5067398;28;20177;-42
2022/06/30 05:40:02;;;;;;;7.13;6.55;;;24.90;59.40;25.60;100277.00;;;;5067406;28;20619;-42
2022/06/30 05:42:27;;;;;;;7.72;7.13;;;24.90;59.60;25.60;100266.00;;;;5067414;28;20193;-42
2022/06/30 05:44:53;;;;;;;7.97;7.38;;;24.90;59.80;25.60;100271.00;;;;5067623;28;20192;-42
2022/06/30 05:47:19;;;;;;;7.97;7.38;;;24.80;59.70;25.60;100264.00;;;;5066898;28;20785;-41
2022/06/30 05:49:44;;;;;;;8.00;7.35;;;24.90;60.00;25.60;100260.00;;;;5068733;28;20285;-42
2022/06/30 05:52:10;;;;;;;7.87;7.27;;;24.90;60.40;25.60;100263.00;;;;5073410;28;20181;-40
2022/06/30 05:54:36;;;;;;;8.47;7.77;;;24.90;60.40;25.60;100265.00;;;;5070826;28;20220;-41
2022/06/30 05:57:02;;;;;;;8.17;7.57;;;24.80;60.80;25.60;100253.00;;;;5067374;28;20201;-42
2022/06/30 05:59:28;;;;;;;7.90;7.30;;;24.90;60.70;25.60;100255.00;;;;5067185;28;20662;-41
2022/06/30 06:01:53;;;;;;;8.30;7.60;;;24.90;60.90;25.60;100268.00;;;;5067220;28;20201;-42
2022/06/30 06:04:19;;;;;;;7.90;7.40;;;24.90;61.50;25.60;100269.00;;;;5067057;28;20165;-41
2022/06/30 06:06:45;;;;;;;8.10;7.40;;;24.90;61.80;25.60;100262.00;;;;5067134;28;20785;-42
2022/06/30 06:09:10;;;;;;;7.88;7.28;;;24.80;61.60;25.60;100266.00;;;;5066791;28;20204;-41
2022/06/30 06:11:36;;;;;;;8.60;7.90;;;24.80;61.40;25.60;100277.00;;;;5066819;28;20548;-42
2022/06/30 06:14:02;;;;;;;7.93;7.23;;;24.80;61.90;25.60;100276.00;;;;5067115;28;20201;-42
2022/06/30 06:16:28;;;;;;;8.00;7.40;;;24.80;61.70;25.60;100283.00;;;;5066663;28;20224;-41
2022/06/30 06:18:53;;;;;;;8.43;7.68;;;24.80;61.60;25.60;100283.00;;;;5066790;28;20283;-41
2022/06/30 06:21:19;;;;;;;8.38;7.78;;;24.80;62.50;25.60;100286.00;;;;5066881;28;20263;-42
2022/06/30 06:23:45;;;;;;;8.70;8.00;;;24.80;62.90;25.60;100291.00;;;;5066895;28;20185;-41
2022/06/30 06:26:11;;;;;;;8.13;7.53;;;24.80;62.90;25.60;100286.00;;;;5066509;28;20579;-41
2022/06/30 06:31:20;;;;;;;8.90;7.67;;;24.70;63.10;25.60;100290.00;;;;5066619;28;20219;-42
2022/06/30 06:33:48;;;;;;;8.70;7.90;;;24.70;62.80;25.50;100288.00;;;;5066594;28;20193;-42
2022/06/30 06:36:13;;;;;;;8.70;8.00;;;24.70;62.80;25.50;100284.00;;;;5066171;28;20189;-42
2022/06/30 06:38:39;;;;;;;8.83;8.13;;;24.70;62.80;25.50;100289.00;;;;5066246;28;20184;-42
2022/06/30 06:41:07;;;;;;;8.63;7.97;;;24.70;62.70;25.50;100288.00;;;;5066610;28;20703;-42
2022/06/30 06:43:34;;;;;;;8.80;8.10;;;24.60;62.70;25.50;100284.00;;;;5066409;28;20270;-43
2022/06/30 06:46:00;;;;;;;8.48;7.78;;;24.70;63.00;25.50;100284.00;;;;5065933;28;20194;-43
2022/06/30 06:48:26;;;;;;;8.70;8.00;;;24.60;63.00;25.50;100291.00;;;;5065931;28;20303;-42
2022/06/30 06:50:51;;;;;;;8.30;7.70;;;24.60;63.40;25.50;100287.00;;;;5066191;28;20582;-42
2022/06/30 06:53:17;;;;;;;8.40;7.70;;;24.70;63.50;25.50;100277.00;;;;5066163;28;20166;-42
2022/06/30 06:55:43;;;;;;;8.40;7.70;;;24.70;63.50;25.50;100283.00;;;;5065854;28;20228;-43
2022/06/30 06:58:10;;;;;;;8.53;7.93;;;24.70;63.30;25.60;100279.00;;;;5066139;28;20187;-42
2022/06/30 07:00:36;;;;;;;8.73;7.93;;;24.70;63.50;25.60;100285.00;;;;5065314;28;20173;-42
2022/06/30 07:03:02;;;;;;;8.48;7.88;;;24.70;63.70;25.60;100284.00;;;;5066080;28;20205;-42
2022/06/30 07:05:28;;;;;;;9.30;8.50;;;24.70;63.70;25.60;100281.00;;;;5066075;28;20272;-43
2022/06/30 07:07:58;;;;;;;8.40;7.80;;;24.80;63.70;25.60;100280.00;;;;5065390;28;20248;-42
2022/06/30 07:10:24;;;;;;;8.40;7.70;;;24.80;63.60;25.60;100274.00;;;;5066007;28;20169;-42
2022/06/30 07:12:50;;;;;;;7.90;7.30;;;24.90;63.70;25.60;100277.00;;;;5065788;28;20169;-42
2022/06/30 07:15:15;;;;;;;8.45;7.85;;;24.90;63.90;25.70;100282.00;;;;5065743;28;20429;-41
2022/06/30 07:17:41;;;;;;;8.25;7.53;;;24.80;63.60;25.70;100279.00;;;;5064600;28;20688;-42
2022/06/30 07:20:08;;;;;;;8.05;7.45;;;24.80;65.60;25.70;100293.00;;;;5065205;28;20717;-41
2022/06/30 07:22:34;;;;;;;8.25;7.55;;;24.90;64.80;25.70;100297.00;;;;5080019;28;20208;-41
2022/06/30 07:25:00;;;;;;;9.00;8.30;;;24.90;64.70;25.70;100299.00;;;;5075296;28;20203;-42
2022/06/30 07:27:26;;;;;;;9.02;8.25;;;24.80;65.40;25.70;100297.00;;;;5073898;28;20157;-42
2022/06/30 07:29:52;;;;;;;9.80;8.82;;;24.90;65.30;25.70;100299.00;;;;5077418;28;20237;-42
2022/06/30 07:32:17;;;;;;;10.15;8.55;;;24.80;65.60;25.70;100302.00;;;;5080981;28;20216;-42
2022/06/30 07:34:43;;;;;;;9.00;8.07;;;24.80;66.30;25.70;100312.00;;;;5072940;28;20201;-42
2022/06/30 07:37:09;;;;;;;9.35;8.38;;;24.90;66.60;25.70;100309.00;;;;5071687;28;20202;-43
2022/06/30 07:39:35;;;;;;;9.02;7.68;;;24.90;66.50;25.80;100306.00;;;;5081285;28;20230;-42
2022/06/30 07:42:01;;;;;;;8.25;7.55;;;24.90;66.00;25.80;100319.00;;;;5078034;28;20215;-43
2022/06/30 07:44:27;;;;;;;8.45;7.40;;;24.90;66.00;25.80;100313.00;;;;5067348;28;20825;-43
2022/06/30 07:46:52;;;;;;;8.40;7.50;;;24.90;65.90;25.90;100313.00;;;;5078411;28;20268;-43
2022/06/30 07:49:18;;;;;;;9.95;7.65;;;25.00;65.90;25.90;100308.00;;;;5073266;28;20329;-42
2022/06/30 07:51:44;;;;;;;8.00;7.03;;;25.00;66.00;25.90;100318.00;;;;5074342;28;20968;-43
2022/06/30 07:54:09;;;;;;;7.72;7.13;;;25.00;66.00;25.90;100321.00;;;;5079890;28;20199;-43
2022/06/30 07:56:35;;;;;;;7.63;7.00;;;25.00;65.80;25.90;100318.00;;;;5087517;28;20198;-43
2022/06/30 07:59:01;;;;;;;8.27;7.47;;;25.00;66.00;25.90;100318.00;;;;5079292;28;20179;-43
2022/06/30 08:01:27;;;;;;;7.75;6.90;;;25.00;66.00;25.90;100308.00;;;;5083265;28;20196;-42
2022/06/30 08:03:52;;;;;;;7.85;7.10;;;25.00;65.90;25.90;100315.00;;;;5086544;28;20175;-43
2022/06/30 08:06:18;;;;;;;8.02;7.30;;;25.00;66.20;26.00;100313.00;;;;5068218;28;20193;-43
2022/06/30 08:08:44;;;;;;;7.47;6.88;;;25.00;66.20;26.00;100318.00;;;;5075257;28;20180;-43
2022/06/30 08:11:10;;;;;;;7.95;7.20;;;25.00;66.30;26.00;100310.00;;;;5082182;28;20220;-43
2022/06/30 08:13:36;;;;;;;7.25;6.65;;;25.00;66.40;26.00;100316.00;;;;5082017;28;20987;-43
2022/06/30 08:16:03;;;;;;;7.88;7.28;;;25.00;66.20;26.00;100321.00;;;;5086182;28;20202;-43
2022/06/30 08:18:29;;;;;;;7.50;6.80;;;25.00;66.30;26.00;100318.00;;;;5083907;28;20295;-42
2022/06/30 08:20:55;;;;;;;7.95;7.05;;;25.00;66.30;26.00;100308.00;;;;5076112;28;20233;-43
2022/06/30 08:23:20;;;;;;;7.25;6.72;;;25.00;66.40;26.00;100330.00;;;;5070848;28;20326;-42
2022/06/30 08:25:46;;;;;;;7.30;6.70;;;25.00;66.40;26.00;100309.00;;;;5074825;28;20213;-42
2022/06/30 08:28:12;;;;;;;6.90;6.30;;;25.00;66.60;26.00;100312.00;;;;5084370;28;20208;-41
2022/06/30 08:30:38;;;;;;;7.25;6.75;;;25.10;66.40;26.00;100316.00;;;;5077986;28;20256;-42
2022/06/30 08:33:04;;;;;;;7.10;6.50;;;25.10;67.20;26.10;100310.00;;;;5088672;28;21553;-42
2022/06/30 08:35:30;;;;;;;7.15;6.55;;;25.10;66.20;26.10;100315.00;;;;5076730;28;20852;-42
2022/06/30 08:37:56;;;;;;;6.90;6.30;;;25.00;66.30;26.10;100317.00;;;;5080718;28;20272;-41
2022/06/30 08:43:09;;;;;;;6.57;6.07;;;25.10;66.70;26.10;100294.00;;;;5083444;28;20203;-43
2022/06/30 08:45:35;;;;;;;6.88;6.38;;;25.10;66.60;26.10;100301.00;;;;5086195;28;20200;-42
2022/06/30 08:48:01;;;;;;;6.28;5.78;;;25.10;66.40;26.10;100298.00;;;;5088756;28;20177;-42
2022/06/30 08:50:26;;;;;;;6.65;6.15;;;25.10;66.40;26.10;100306.00;;;;5074010;28;20169;-42
2022/06/30 08:52:54;;;;;;;6.60;6.10;;;25.10;66.70;26.10;100304.00;;;;5087035;28;20204;-42
2022/06/30 08:55:28;;;;;;;6.57;6.07;;;25.10;66.60;26.10;100309.00;;;;5070507;28;20200;-41
2022/06/30 08:58:06;;;;;;;6.05;5.65;;;25.20;66.80;26.20;100303.00;;;;5083670;28;20241;-43
2022/06/30 09:00:34;;;;;;;6.70;6.07;;;25.20;66.70;26.20;100305.00;;;;5079547;28;20803;-45
2022/06/30 09:03:01;;;;;;;6.80;6.25;;;25.20;66.70;26.20;100311.00;;;;5084795;28;20720;-41
2022/06/30 09:05:26;;;;;;;6.53;6.03;;;25.20;66.50;26.20;100309.00;;;;5086574;28;20550;-42
2022/06/30 09:07:52;;;;;;;6.35;5.95;;;25.20;66.40;26.20;100294.00;;;;5082330;28;20193;-45
2022/06/30 09:10:18;;;;;;;6.40;5.90;;;25.20;66.40;26.20;100297.00;;;;5088349;28;20214;-42
2022/06/30 09:13:03;;;;;;;6.22;5.72;;;25.20;66.40;26.20;100288.00;;;;5084277;28;20180;-42
2022/06/30 09:15:35;;;;;;;6.10;5.60;;;25.20;66.40;26.20;100297.00;;;;5076411;28;20204;-43
2022/06/30 09:18:01;;;;;;;5.95;5.55;;;25.20;66.60;26.20;100291.00;;;;5060700;28;20203;-42
2022/06/30 09:20:38;;;;;;;6.50;6.00;;;25.30;66.70;26.20;100283.00;;;;5081965;28;20183;-43
2022/06/30 09:23:26;;;;;;;6.07;5.50;;;25.30;66.60;26.30;100288.00;;;;5080365;28;20208;-42
2022/06/30 09:25:57;;;;;;;5.93;5.38;;;25.30;66.40;26.30;100294.00;;;;5083115;28;20219;-42
2022/06/30 09:28:53;;;;;;;6.00;5.50;;;25.30;66.50;26.30;100288.00;;;;5090314;28;20680;-42
2022/06/30 09:31:40;;;;;;;5.78;5.35;;;25.40;66.60;26.30;100292.00;;;;5091500;28;20158;-43
2022/06/30 09:34:32;;;;;;;5.65;5.25;;;25.30;66.40;26.30;100293.00;;;;5091295;28;20165;-42
2022/06/30 09:36:57;;;;;;;5.97;5.40;;;25.40;66.60;26.30;100290.00;;;;5089741;28;20185;-42
2022/06/30 09:39:23;;;;;;;5.65;5.15;;;25.40;66.60;26.30;100283.00;;;;5089745;28;20203;-42
2022/06/30 09:41:50;;;;;;;5.53;5.18;;;25.40;66.50;26.30;100284.00;;;;5091066;28;20217;-43
2022/06/30 09:44:15;;;;;;;5.07;4.78;;;25.40;66.50;26.30;100228.00;;;;5091097;28;20234;-41
2022/06/30 09:47:15;;;;;;;5.53;5.10;;;25.40;66.80;26.30;100287.00;;;;5090892;28;20646;-43
2022/06/30 09:49:46;;;;;;;5.35;5.03;;;25.50;66.60;26.40;100284.00;;;;5091058;28;20703;-43
2022/06/30 09:52:25;;;;;;;5.30;4.90;;;25.50;66.60;26.40;100281.00;;;;5090804;28;20189;-43
2022/06/30 09:55:06;;;;;;;5.32;4.93;;;25.50;66.60;26.40;100279.00;;;;5090487;28;20204;-43
2022/06/30 09:57:37;;;;;;;5.13;4.80;;;25.50;66.50;26.40;100273.00;;;;5090685;28;20516;-44
2022/06/30 10:00:15;;;;;;;5.32;4.93;;;25.50;66.60;26.40;100273.00;;;;5090623;28;20161;-47
2022/06/30 10:02:46;;;;;;;5.40;5.00;;;25.60;66.70;26.40;100269.00;;;;5090967;28;20203;-41
2022/06/30 10:05:14;;;;;;;5.32;4.93;;;25.60;66.50;26.50;100274.00;;;;5084718;28;20579;-42
2022/06/30 10:07:40;;;;;;;4.82;4.50;;;25.60;66.20;26.50;100280.00;;;;5090530;28;20184;-43
2022/06/30 10:10:10;;;;;;;5.43;5.03;;;25.70;66.30;26.50;100277.00;;;;5093210;28;20517;-42
2022/06/30 10:12:36;;;;;;;5.15;4.75;;;25.60;66.40;26.50;100273.00;;;;5091877;28;20301;-44
2022/06/30 10:15:02;;;;;;;5.32;4.93;;;25.70;66.70;26.50;100274.00;;;;5090178;28;20215;-41
2022/06/30 10:17:31;;;;;;;4.68;4.35;;;25.70;66.70;26.50;100273.00;;;;5090747;28;20173;-42
2022/06/30 10:19:58;;;;;;;4.72;4.43;;;25.70;66.10;26.60;100271.00;;;;5091635;28;20171;-42
2022/06/30 10:22:26;;;;;;;4.93;4.57;;;25.70;65.80;26.60;100262.00;;;;5091321;28;20276;-41
2022/06/30 10:24:53;;;;;;;5.40;4.90;;;25.80;66.00;26.60;100266.00;;;;5086931;28;20192;-42
2022/06/30 10:27:20;;;;;;;4.75;4.35;;;25.80;66.00;26.60;100274.00;;;;5074965;28;20196;-42
2022/06/30 10:30:02;;;;;;;4.80;4.40;;;25.80;66.30;26.70;100256.00;;;;5090039;28;21082;-42
2022/06/30 10:32:53;;;;;;;4.78;4.38;;;25.80;66.30;26.70;100266.00;;;;5084788;28;20183;-42
2022/06/30 10:35:48;;;;;;;4.70;4.40;;;25.90;66.60;26.70;100252.00;;;;5083275;28;20207;-42
2022/06/30 10:38:43;;;;;;;4.30;4.00;;;25.90;66.50;26.70;100242.00;;;;5077212;28;20190;-42
2022/06/30 10:41:13;;;;;;;4.55;4.25;;;25.90;66.50;26.80;100249.00;;;;5070606;28;20795;-42
2022/06/30 10:44:03;;;;;;;4.50;4.20;;;25.90;66.70;26.80;100255.00;;;;5078030;28;20998;-42
2022/06/30 10:46:35;;;;;;;5.40;4.43;;;26.00;67.10;26.80;100252.00;;;;5082365;28;20195;-44
2022/06/30 10:49:08;;;;;;;6.07;4.20;;;26.00;67.70;26.80;100253.00;;;;5082754;28;20298;-42
2022/06/30 10:51:34;;;;;;;6.15;3.85;;;26.00;66.80;26.80;100261.00;;;;5084744;28;20257;-43
2022/06/30 10:54:00;;;;;;;4.95;4.55;;;26.10;67.80;26.90;100248.00;;;;5083772;28;20255;-42
2022/06/30 10:56:54;;;;;;;4.90;4.50;;;26.10;68.00;26.90;100243.00;;;;5082504;28;20196;-42
2022/06/30 10:59:28;;;;;;;4.50;4.20;;;26.10;68.60;27.00;100254.00;;;;5085778;28;20872;-42
2022/06/30 11:02:14;;;;;;;4.43;3.90;;;26.20;68.40;27.00;100242.00;;;;5080171;28;20192;-42
2022/06/30 11:04:48;;;;;;;4.35;3.95;;;26.20;68.00;27.10;100248.00;;;;5088910;27;20199;-43
2022/06/30 11:07:20;;;;;;;4.65;4.25;;;26.20;68.10;27.10;100242.00;;;;5076922;28;20188;-42
2022/06/30 11:09:49;;;;;;;4.47;4.05;;;26.20;67.80;27.10;100247.00;;;;5104177;27;20175;-43